To NAV CANADA Home Page Login to a new session Search on AWWS site Disclaimer Vers la page française équivalente Tips FAQ What's new on the site To the Forecasts and Observations / NOTAM section To "File a Flight Plan" website Publications and other links Update of the User's profile FIC Telephone Numbers My Weather Data Folder Route Weather Data Regional Weather Data Local Weather Data To the Forecasts and Observations / NOTAM section
Request Generated 04/08/2020 at 08:54:17 UTC . Weather information available at that time is displayed.

METAR/TAF

KITCHENER/WATERLOO/ON    (show WxCam)

SPECI CYKF 080820Z AUTO 09003KT 310V100 3SM BR OVC010 04/04 A2959 RMK SLP025=
SPECI CYKF 080801Z AUTO VRB02KT 2 1/2SM BR OVC010 04/04 A2959 RMK SLP028=
METAR CYKF 080800Z AUTO 36003KT 330V050 2 1/4SM BR BKN008 OVC012 04/04 A2959 RMK SLP028=
SPECI CYKF 080757Z AUTO 01004KT 310V040 2 1/4SM BR OVC010 04/04 A2959 RMK SLP027=
SPECI CYKF 080753Z AUTO 36003KT 310V060 2SM BR BKN008 OVC012 04/04 A2960 RMK SLP029=
SPECI CYKF 080750Z AUTO VRB02KT 2SM BR SCT007 OVC012 04/04 A2960 RMK SLP028=
SPECI CYKF 080747Z AUTO 01003KT 360V060 2SM BR BKN007 OVC012 04/04 A2960 RMK SLP028=
SPECI CYKF 080746Z AUTO 03003KT 1 3/4SM BR SCT007 OVC012 04/04 A2960 RMK SLP028=
METAR CYKF 080700Z AUTO 00000KT 1 3/4SM BR BKN007 OVC013 05/04 A2960 RMK SLP031=
SPECI CYKF 080659Z AUTO 00000KT 1 3/4SM BR BKN007 OVC013 05/04 A2960 RMK SLP030=
SPECI CYKF 080653Z AUTO 00000KT 2 1/2SM BR BKN009 OVC013 05/04 A2960 RMK SLP031=
SPECI CYKF 080646Z AUTO 09003KT 5SM BR BKN009 OVC013 05/04 A2960 RMK SLP031=
SPECI CYKF 080633Z AUTO 10004KT 9SM OVC011 05/04 A2960 RMK SLP031=
SPECI CYKF 080630Z AUTO 10004KT 9SM OVC011 05/04 A2961 RMK SLP032=
SPECI CYKF 080628Z AUTO 10004KT 9SM OVC011 05/04 A2961 RMK SLP032=
METAR CYKF 080600Z AUTO 08004KT 9SM OVC007 05/04 A2960 RMK SLP030=

TAF CYKF 080738Z 0808/0820 10005KT 6SM BR OVC010 TEMPO 0808/0810
11/2SM BR OVC005
FM081000 09003KT 1SM -DZ BR OVC003 TEMPO 0810/0814 3SM -DZ BR
OVC008
FM081400 28012KT 3SM -DZ BR OVC008
FM081700 29015KT P6SM FEW025
RMK FCST BASED ON AUTO OBS. NXT FCST BY 081400Z=

LONDON/ON    

METAR CYXU 080800Z 00000KT 3/8SM R15/2400FT/N FG VV001 06/06 A2959 RMK FG8 SLP027=
SPECI CYXU 080728Z 07004KT 1/2SM R15/5000VP6000FT/D FG VV001 06/06 A2959 RMK FG8 SLP026=
METAR CYXU 080700Z 08007KT 1SM R15/P6000FT/D BR OVC002 07/06 A2960 RMK ST8 SLP029=
METAR CYXU 080600Z 08007KT 2SM BR OVC003 07/07 A2959 RMK ST8 SLP026=

TAF AMD CYXU 080744Z 0807/0906 09005KT 1/2SM -DZ FG VV001 TEMPO
0807/0811 3SM BR OVC004
FM081100 29008KT 2SM -DZ BR OVC004 TEMPO 0811/0813 6SM BR OVC006
FM081300 31010KT 3SM BR OVC006 TEMPO 0813/0816 P6SM NSW BKN015
FM081600 31012G22KT P6SM FEW015
FM082000 31010G20KT P6SM BKN030
FM082300 20010KT P6SM -SHRA BKN020 OVC040
FM090200 20007KT 2SM -SHRA BR OVC006 PROB30 0904/0906 1/2SM SHRA
VV002
RMK NXT FCST BY 081200Z=

HAMILTON/ON    

SPECI CYHM 080840Z 04005KT 8SM FEW008 SCT014 BKN026 05/04 A2958 RMK CF2SC2SC3 MOON BRIGHTLY VISBL SLP024=
METAR CYHM 080800Z 03006KT 7SM FEW007 OVC013 05/04 A2959 RMK SF2SC6 SLP026=
SPECI CYHM 080738Z 02007KT 7SM FEW007 OVC014 05/04 A2958 RMK SF2SC6 SLP024=
METAR CYHM 080700Z 01006KT 7SM FEW006 OVC016 05/04 A2959 RMK SF1SC7 SLP027=
METAR CYHM 080600Z 03009KT 6SM -RA BR SCT006 OVC017 05/04 A2959 RMK SF3SC5 SLP025=

TAF AMD CYHM 080848Z 0808/0906 03006KT P6SM BKN025 TEMPO 0808/0814
3/4SM -DZ BR OVC005 PROB30 0810/0813 1/4SM -DZ FG VV001
FM081400 VRB03KT 4SM BR OVC005 TEMPO 0814/0816 P6SM NSW OVC010
FM081600 28013KT P6SM BKN010 TEMPO 0816/0818 FEW025
FM081800 28012G22KT P6SM FEW025
FM082200 26010KT P6SM BKN030
FM090300 18008KT 3SM -SHRA BR SCT008 OVC012 PROB30 0903/0906
11/2SM SHRA BR OVC004
RMK NXT FCST BY 081200Z=
Your time UTC time
Weather data provided by Environment Canada and NAV CANADA